Time;durP1;ratioP1;P1;durP2;ratioP2;P2;SDS_P1;SDS_P2;PMS_P1;PMS_P2;Temp;Humidity;BMP_temperature;BMP_pressure;BME280_temperature;BME280_humidity;BME280_pressure;Samples;Min_cycle;Max_cycle;Signal;HPM_P1;HPM_P2
2023/06/13 00:00:44;;;;;;;7.47;5.13;;;;;;;16.06;28.31;95416.91;5021611;28;20540;-74
2023/06/13 00:03:13;;;;;;;11.00;5.65;;;;;;;16.02;28.10;95416.56;5020234;28;20435;-74
2023/06/13 00:05:39;;;;;;;5.93;4.50;;;;;;;15.90;28.83;95412.94;5021753;28;20470;-74
2023/06/13 00:08:04;;;;;;;13.07;4.80;;;;;;;15.83;28.73;95416.47;5019770;28;20026;-73
2023/06/13 00:10:30;;;;;;;7.32;5.13;;;;;;;15.87;28.43;95416.84;5019549;28;20040;-74
2023/06/13 00:12:55;;;;;;;6.78;5.55;;;;;;;15.84;28.55;95419.97;5019813;28;20033;-73
2023/06/13 00:15:21;;;;;;;7.32;4.85;;;;;;;15.74;28.90;95410.53;5019557;28;20502;-73
2023/06/13 00:17:47;;;;;;;6.65;4.95;;;;;;;15.75;29.18;95417.53;5020672;28;20322;-74
2023/06/13 00:20:13;;;;;;;8.18;4.38;;;;;;;15.72;29.27;95412.63;5019001;28;20521;-73
2023/06/13 00:22:38;;;;;;;11.38;8.60;;;;;;;15.44;29.83;95416.44;5018966;28;20033;-73
2023/06/13 00:25:04;;;;;;;8.98;5.38;;;;;;;15.66;29.09;95418.84;5019858;28;20350;-74
2023/06/13 00:27:31;;;;;;;6.78;4.50;;;;;;;15.66;29.08;95420.69;5018679;28;20099;-73
2023/06/13 00:29:56;;;;;;;9.10;6.10;;;;;;;15.57;29.93;95420.94;5018234;28;20030;-73
2023/06/13 00:32:22;;;;;;;10.88;6.40;;;;;;;15.43;29.82;95420.16;5020779;28;20029;-73
2023/06/13 00:34:47;;;;;;;12.07;5.82;;;;;;;15.42;29.44;95418.53;5019922;28;20494;-73
2023/06/13 00:37:16;;;;;;;7.75;4.10;;;;;;;15.40;29.56;95417.09;5020359;28;20041;-73
2023/06/13 00:39:42;;;;;;;7.78;5.20;;;;;;;15.37;29.59;95418.34;5020993;28;20115;-74
2023/06/13 00:42:08;;;;;;;9.25;6.32;;;;;;;15.27;29.64;95416.13;5018946;28;20491;-73
2023/06/13 00:44:33;;;;;;;8.90;5.50;;;;;;;15.26;29.45;95419.00;5018975;28;20036;-73
2023/06/13 00:47:00;;;;;;;6.30;4.43;;;;;;;15.20;29.49;95412.66;5018981;28;20086;-73
2023/06/13 00:49:26;;;;;;;10.63;5.90;;;;;;;15.13;30.35;95415.31;5002793;28;20386;-73
2023/06/13 00:51:51;;;;;;;6.30;4.10;;;;;;;14.96;30.30;95420.38;5020380;28;20030;-74
2023/06/13 00:54:18;;;;;;;9.80;6.95;;;;;;;14.80;30.17;95417.09;5002802;28;20437;-73
2023/06/13 00:56:44;;;;;;;7.78;5.45;;;;;;;;;;5017233;28;20441;-74
2023/06/13 00:59:10;;;;;;;9.27;5.68;;;;;;;14.85;30.32;95416.44;5019137;28;20029;-73
2023/06/13 01:01:40;;;;;;;8.27;6.20;;;;;;;14.80;30.64;95414.44;5016940;22;20260;-75
2023/06/13 01:04:07;;;;;;;10.60;6.85;;;;;;;14.77;30.19;95411.31;5016993;28;20045;-77
2023/06/13 01:06:33;;;;;;;8.27;5.13;;;;;;;14.76;30.52;95413.19;5025709;28;20029;-76
2023/06/13 01:09:02;;;;;;;7.95;5.80;;;;;;;14.59;31.13;95410.09;5006637;28;20026;-76
2023/06/13 01:12:00;;;;;;;6.63;4.53;;;;;;;14.49;31.18;95407.84;5019084;28;20033;-77
2023/06/13 01:14:41;;;;;;;9.13;5.90;;;;;;;14.53;30.68;95405.56;5028177;28;20285;-77
2023/06/13 01:17:24;;;;;;;7.85;5.43;;;;;;;14.42;31.51;95405.16;5023832;28;20110;-76
2023/06/13 01:19:58;;;;;;;8.68;5.47;;;;;;;14.33;31.42;95407.25;5024294;28;20120;-76
2023/06/13 01:22:42;;;;;;;7.05;5.50;;;;;;;14.27;31.68;95396.53;4993646;28;20057;-77
2023/06/13 01:25:44;;;;;;;6.13;4.47;;;;;;;14.21;31.42;95404.38;5024114;28;20079;-77
2023/06/13 01:28:13;;;;;;;9.63;6.65;;;;;;;14.25;31.65;95403.97;5041048;28;20041;-77
2023/06/13 01:30:39;;;;;;;6.95;5.00;;;;;;;14.10;32.40;95404.97;5002793;28;20036;-77
2023/06/13 01:33:04;;;;;;;10.88;8.68;;;;;;;13.86;32.53;95401.84;5000075;28;20092;-77
2023/06/13 01:35:30;;;;;;;4.88;4.07;;;;;;;13.80;32.54;95402.66;5004957;28;20033;-76
2023/06/13 01:37:56;;;;;;;10.85;6.68;;;;;;;13.84;31.97;95398.56;4993635;28;20053;-77
2023/06/13 01:40:21;;;;;;;9.52;6.38;;;;;;;13.84;32.25;95393.22;5026014;28;20596;-77
2023/06/13 01:42:46;;;;;;;7.82;6.40;;;;;;;13.78;32.09;95399.38;5046792;28;20032;-78
2023/06/13 01:45:12;;;;;;;7.82;5.43;;;;;;;13.78;32.45;95394.84;5028166;28;20036;-78
2023/06/13 01:47:43;;;;;;;8.65;6.75;;;;;;;13.78;32.50;95404.72;5006873;28;20029;-78
2023/06/13 01:50:29;;;;;;;8.65;6.70;;;;;;;13.66;32.53;95408.00;5044962;28;20100;-79
2023/06/13 01:53:07;;;;;;;8.13;5.70;;;;;;;13.63;32.73;95396.88;5010297;28;20037;-78
2023/06/13 01:55:40;;;;;;;11.27;8.77;;;;;;;13.66;32.44;95401.81;5028643;28;20017;-78
2023/06/13 01:58:13;;;;;;;9.77;6.38;;;;;;;13.59;32.93;95396.44;4998573;28;20036;-78
2023/06/13 02:00:38;;;;;;;7.50;5.10;;;;;;;13.43;33.34;95395.81;5014720;28;20079;-78
2023/06/13 02:03:04;;;;;;;9.63;6.53;;;;;;;13.40;32.89;95396.19;5018670;28;20045;-78
2023/06/13 02:05:29;;;;;;;7.93;5.25;;;;;;;13.40;33.45;95390.03;5014339;28;20112;-78
2023/06/13 02:07:56;;;;;;;10.85;5.45;;;;;;;13.36;33.48;95391.47;5026587;28;20056;-78
2023/06/13 02:10:22;;;;;;;8.17;6.13;;;;;;;13.30;33.46;95390.44;5029170;28;20037;-78
2023/06/13 02:12:47;;;;;;;10.05;7.53;;;;;;;13.32;33.31;95396.38;5026574;28;20037;-78
2023/06/13 02:15:13;;;;;;;9.30;7.43;;;;;;;13.35;33.11;95387.97;4991059;28;20041;-78
2023/06/13 02:17:39;;;;;;;8.07;6.00;;;;;;;13.38;32.89;95387.56;5033316;28;20033;-78
2023/06/13 02:20:06;;;;;;;9.90;7.95;;;;;;;13.33;33.37;95390.03;5013665;28;20100;-78
2023/06/13 02:22:32;;;;;;;8.85;7.18;;;;;;;13.34;33.31;95386.31;5012664;28;20040;-78
2023/06/13 02:24:57;;;;;;;10.35;6.00;;;;;;;13.38;33.02;95381.38;5024011;28;20029;-78
2023/06/13 02:27:22;;;;;;;8.65;5.03;;;;;;;13.38;33.07;95384.91;5023779;28;20029;-78
2023/06/13 02:29:48;;;;;;;7.93;5.10;;;;;;;13.38;33.07;95390.25;5006885;28;20046;-78
2023/06/13 02:32:13;;;;;;;7.50;5.60;;;;;;;13.33;33.49;95379.34;5017501;28;20030;-78
2023/06/13 02:34:39;;;;;;;8.55;5.63;;;;;;;13.38;32.94;95384.91;5023574;28;20190;-78
2023/06/13 02:37:05;;;;;;;8.50;4.22;;;;;;;13.43;32.73;95387.78;5016196;28;20037;-78
2023/06/13 02:39:30;;;;;;;6.25;4.55;;;;;;;13.49;32.55;95393.38;5016603;28;20044;-78
2023/06/13 02:41:55;;;;;;;7.00;4.43;;;;;;;13.38;33.20;95379.56;5023315;28;20029;-78
2023/06/13 02:44:21;;;;;;;7.90;5.22;;;;;;;13.35;32.98;95384.47;5014829;28;20721;-78
2023/06/13 02:46:46;;;;;;;9.05;6.30;;;;;;;13.35;33.14;95379.94;5023885;28;20364;-78
2023/06/13 02:49:12;;;;;;;8.32;6.20;;;;;;;13.35;33.06;95382.63;5013000;28;20037;-78
2023/06/13 02:51:37;;;;;;;7.57;5.85;;;;;;;13.35;32.97;95376.44;5004534;28;20021;-78
2023/06/13 02:54:02;;;;;;;8.57;5.40;;;;;;;13.23;33.38;95376.22;5021034;28;20038;-79
2023/06/13 02:56:29;;;;;;;8.77;6.78;;;;;;;13.21;33.47;95381.75;5017463;28;20029;-78
2023/06/13 02:58:54;;;;;;;8.90;5.38;;;;;;;13.06;33.70;95371.22;5026397;28;20026;-79
2023/06/13 03:01:20;;;;;;;7.63;5.65;;;;;;;13.09;33.45;95375.34;5015376;28;20052;-79
2023/06/13 03:03:47;;;;;;;9.10;6.40;;;;;;;13.09;33.48;95381.50;5011766;28;20072;-79
2023/06/13 03:06:17;;;;;;;7.13;4.60;;;;;;;12.97;33.73;95380.41;5015884;28;20034;-79
2023/06/13 03:08:43;;;;;;;8.85;5.20;;;;;;;12.96;34.13;95382.25;5008271;28;20539;-78
2023/06/13 03:11:09;;;;;;;9.77;5.50;;;;;;;12.96;33.95;95382.25;5022459;28;20601;-78
2023/06/13 03:13:34;;;;;;;6.93;4.70;;;;;;;12.95;34.18;95385.94;5020528;28;20053;-78
2023/06/13 03:16:01;;;;;;;6.28;4.50;;;;;;;12.70;34.57;95385.59;5009096;28;20076;-78
2023/06/13 03:18:26;;;;;;;6.40;4.05;;;;;;;12.56;34.89;95382.03;4992361;28;20107;-78
2023/06/13 03:20:52;;;;;;;7.47;4.90;;;;;;;12.50;35.12;95384.47;5023006;28;20045;-78
2023/06/13 03:23:17;;;;;;;6.30;4.50;;;;;;;12.46;35.54;95380.56;5023026;28;20048;-78
2023/06/13 03:25:44;;;;;;;6.22;4.88;;;;;;;12.33;35.47;95377.78;5011782;28;20578;-78
2023/06/13 03:28:10;;;;;;;9.75;5.28;;;;;;;12.35;35.75;95381.09;4992174;28;20025;-78
2023/06/13 03:30:36;;;;;;;12.02;5.10;;;;;;;12.21;35.59;95377.50;5023141;28;20065;-78
2023/06/13 03:33:01;;;;;;;12.57;5.88;;;;;;;12.26;35.78;95380.41;5014127;28;20704;-78
2023/06/13 03:35:27;;;;;;;10.70;5.15;;;;;;;12.39;35.41;95383.19;5025095;28;20040;-78
2023/06/13 03:37:52;;;;;;;8.15;4.35;;;;;;;12.39;35.25;95374.34;5009405;28;20115;-78
2023/06/13 03:40:17;;;;;;;11.75;4.60;;;;;;;12.34;35.67;95377.59;5026239;28;20017;-78
2023/06/13 03:42:43;;;;;;;7.38;4.80;;;;;;;12.40;35.49;95378.66;5014835;28;20045;-79
2023/06/13 03:45:09;;;;;;;7.47;4.38;;;;;;;12.49;34.73;95376.66;5010271;28;20496;-78
2023/06/13 03:47:34;;;;;;;6.35;4.47;;;;;;;12.59;35.26;95373.63;5010815;28;20025;-78
2023/06/13 03:50:00;;;;;;;6.18;4.20;;;;;;;12.61;34.89;95379.63;4994586;28;20103;-79
2023/06/13 03:52:25;;;;;;;7.10;4.40;;;;;;;12.64;35.22;95380.03;5009199;28;20025;-78
2023/06/13 03:54:51;;;;;;;8.43;4.80;;;;;;;12.68;35.19;95380.47;5010495;28;20470;-78
2023/06/13 03:57:17;;;;;;;6.72;4.10;;;;;;;12.71;34.81;95377.41;4994385;28;20041;-78
2023/06/13 03:59:42;;;;;;;6.13;3.92;;;;;;;12.73;35.20;95378.03;5007394;28;20394;-78
2023/06/13 04:02:07;;;;;;;10.85;5.18;;;;;;;12.82;34.62;95378.72;4989591;28;20053;-78
2023/06/13 04:04:33;;;;;;;7.55;4.35;;;;;;;12.83;35.04;95372.34;5021708;28;20041;-79
2023/06/13 04:07:04;;;;;;;7.45;5.15;;;;;;;12.96;34.41;95382.25;5021315;28;20033;-78
2023/06/13 04:09:29;;;;;;;5.85;4.25;;;;;;;13.03;35.00;95376.97;4999875;28;20029;-78
2023/06/13 04:11:55;;;;;;;8.00;5.32;;;;;;;13.08;34.61;95377.19;5025022;28;20041;-79
2023/06/13 04:14:20;;;;;;;10.77;4.82;;;;;;;13.20;34.50;95380.13;5010736;28;20099;-79
2023/06/13 04:16:45;;;;;;;5.57;4.47;;;;;;;13.29;34.21;95384.25;5021848;28;20025;-78
2023/06/13 04:19:14;;;;;;;8.35;4.90;;;;;;;13.34;34.33;95386.31;5003178;28;20350;-78
2023/06/13 04:21:39;;;;;;;6.10;4.50;;;;;;;13.42;33.55;95379.97;5007645;28;20029;-78
2023/06/13 04:24:05;;;;;;;5.70;4.00;;;;;;;13.60;33.81;95383.91;5003456;28;20052;-78
2023/06/13 04:26:30;;;;;;;6.13;4.88;;;;;;;13.64;33.86;95379.81;5011016;28;20091;-78
2023/06/13 04:28:56;;;;;;;4.88;3.78;;;;;;;13.75;33.53;95383.72;5008614;28;20087;-78
2023/06/13 04:31:21;;;;;;;4.88;3.88;;;;;;;13.93;32.87;95386.66;4995654;28;20044;-79
2023/06/13 04:33:47;;;;;;;4.50;3.70;;;;;;;14.08;32.91;95382.97;5021678;28;20071;-79
2023/06/13 04:36:12;;;;;;;6.47;3.88;;;;;;;14.20;32.54;95377.78;5022701;28;20026;-79
2023/06/13 04:38:39;;;;;;;11.90;4.25;;;;;;;14.31;32.39;95379.84;5008409;28;20037;-79
2023/06/13 04:41:09;;;;;;;6.10;4.20;;;;;;;14.36;32.24;95384.59;5011071;28;20636;-79
2023/06/13 04:43:38;;;;;;;5.95;3.90;;;;;;;14.56;32.06;95381.06;5006753;28;20164;-79
2023/06/13 04:46:04;;;;;;;5.15;3.70;;;;;;;14.70;31.93;95385.34;4990658;28;20156;-79
2023/06/13 04:48:30;;;;;;;6.20;3.97;;;;;;;14.49;32.24;95393.63;5022037;28;20448;-78
2023/06/13 04:50:58;;;;;;;4.72;3.53;;;;;;;14.93;31.47;95393.97;5022232;28;20068;-78
2023/06/13 04:53:26;;;;;;;8.02;4.55;;;;;;;14.89;31.80;95392.75;5008235;28;20568;-79
2023/06/13 04:55:52;;;;;;;7.55;4.13;;;;;;;14.88;31.84;95397.28;5021479;28;20061;-78
2023/06/13 04:58:18;;;;;;;5.90;4.20;;;;;;;14.91;31.72;95391.50;5002880;28;20095;-79
2023/06/13 05:00:48;;;;;;;5.82;4.35;;;;;;;15.03;31.09;95401.56;5009265;28;20721;-78
2023/06/13 05:03:16;;;;;;;5.50;3.97;;;;;;;15.54;30.73;95399.06;5011845;28;20348;-78
2023/06/13 05:05:45;;;;;;;9.57;4.78;;;;;;;15.24;31.37;95397.78;5020857;28;20061;-79
2023/06/13 05:08:13;;;;;;;6.60;4.05;;;;;;;15.26;31.40;95398.38;5007807;28;20044;-78
2023/06/13 05:10:39;;;;;;;6.30;4.50;;;;;;;14.88;31.65;95402.63;5011371;28;20080;-79
2023/06/13 05:13:04;;;;;;;7.28;5.03;;;;;;;15.45;30.83;95407.38;4996580;28;20041;-79
2023/06/13 05:15:30;;;;;;;9.13;4.47;;;;;;;15.38;31.02;95405.75;5010108;28;20029;-79
2023/06/13 05:17:56;;;;;;;6.88;3.90;;;;;;;15.88;30.28;95403.22;5009162;28;20061;-78
2023/06/13 05:20:25;;;;;;;5.18;4.00;;;;;;;15.84;30.23;95406.56;4997209;28;20501;-79
2023/06/13 05:22:54;;;;;;;9.93;3.88;;;;;;;15.96;29.84;95412.03;5007775;28;20521;-79
2023/06/13 05:25:20;;;;;;;8.10;3.80;;;;;;;16.33;29.32;95411.34;5003751;28;20037;-79
2023/06/13 05:27:46;;;;;;;9.88;4.03;;;;;;;16.37;29.16;95412.56;5002036;28;20029;-79
2023/06/13 05:30:12;;;;;;;6.18;3.70;;;;;;;16.30;29.59;95414.47;5016126;28;20048;-79
2023/06/13 05:32:37;;;;;;;7.35;3.72;;;;;;;16.73;28.91;95410.97;5021768;28;20041;-79
2023/06/13 05:35:03;;;;;;;5.72;3.58;;;;;;;16.65;28.56;95419.34;5011420;28;20049;-79
2023/06/13 05:37:29;;;;;;;6.57;4.00;;;;;;;16.84;28.66;95405.94;5027266;28;20044;-78
2023/06/13 05:39:55;;;;;;;7.10;3.58;;;;;;;16.50;28.98;95412.47;5017642;28;20108;-79
2023/06/13 05:42:20;;;;;;;7.38;3.60;;;;;;;16.89;28.44;95414.13;5012728;28;20060;-79
2023/06/13 05:44:46;;;;;;;7.25;4.10;;;;;;;16.38;28.98;95414.22;5006401;28;20120;-79
2023/06/13 05:47:11;;;;;;;7.25;4.00;;;;;;;16.60;28.83;95413.81;4998265;28;20042;-79
2023/06/13 05:49:37;;;;;;;5.47;3.53;;;;;;;17.16;27.89;95416.56;5003627;28;20033;-79
2023/06/13 05:52:02;;;;;;;7.35;3.60;;;;;;;16.92;27.91;95411.00;5009489;28;20030;-79
2023/06/13 05:54:28;;;;;;;11.43;3.50;;;;;;;16.76;28.29;95421.28;5001316;28;20089;-79
2023/06/13 05:56:53;;;;;;;7.65;3.30;;;;;;;16.89;28.31;95414.13;5001631;28;20034;-79
2023/06/13 05:59:18;;;;;;;4.25;3.75;;;;;;;17.15;28.01;95417.59;4996824;28;20033;-78
2023/06/13 06:01:45;;;;;;;6.82;3.75;;;;;;;17.27;28.01;95417.69;4978160;28;20042;-79
2023/06/13 06:04:10;;;;;;;6.30;3.88;;;;;;;16.82;28.82;95421.47;4986157;28;20183;-79
2023/06/13 06:06:36;;;;;;;6.47;3.10;;;;;;;17.35;27.37;95427.31;4995385;28;20639;-79
2023/06/13 06:09:02;;;;;;;4.15;3.30;;;;;;;17.34;28.08;95420.28;4998725;28;20026;-79
2023/06/13 06:11:28;;;;;;;5.05;3.50;;;;;;;17.22;27.49;95423.72;5000192;28;20045;-79
2023/06/13 06:13:53;;;;;;;6.00;3.80;;;;;;;17.21;28.10;95423.97;4993619;28;20046;-79
2023/06/13 06:16:18;;;;;;;4.35;3.03;;;;;;;17.63;27.45;95418.66;5002948;28;20026;-79
2023/06/13 06:18:44;;;;;;;6.40;3.88;;;;;;;17.49;28.03;95422.56;4985926;28;20046;-79
2023/06/13 06:21:10;;;;;;;7.70;3.83;;;;;;;16.98;28.12;95422.72;4956467;28;20041;-78
2023/06/13 06:23:36;;;;;;;5.22;3.60;;;;;;;17.45;27.75;95421.38;4994865;28;20028;-78
2023/06/13 06:26:02;;;;;;;6.97;3.73;;;;;;;17.59;27.82;95424.72;4989894;28;20030;-79
2023/06/13 06:28:27;;;;;;;6.47;3.38;;;;;;;17.64;27.76;95424.88;5002388;28;20366;-79
2023/06/13 06:30:53;;;;;;;4.70;3.17;;;;;;;17.77;27.64;95424.69;4987896;28;20030;-79
2023/06/13 06:33:18;;;;;;;7.22;3.25;;;;;;;17.64;27.11;95427.56;5010076;28;20034;-78
2023/06/13 06:35:44;;;;;;;4.72;3.60;;;;;;;17.83;27.53;95431.03;5005808;28;20215;-79
2023/06/13 06:38:09;;;;;;;8.73;4.03;;;;;;;17.86;27.46;95417.13;5007074;28;20049;-79
2023/06/13 06:40:35;;;;;;;5.55;3.75;;;;;;;18.14;26.83;95422.91;4991341;28;20045;-79
2023/06/13 06:43:00;;;;;;;5.63;3.63;;;;;;;18.37;26.22;95424.00;5004251;28;20041;-78
2023/06/13 06:45:25;;;;;;;9.75;3.60;;;;;;;18.18;26.70;95424.09;5003496;28;20029;-79
2023/06/13 06:47:51;;;;;;;6.00;3.88;;;;;;;18.31;26.99;95421.22;4980497;28;20030;-78
2023/06/13 06:50:17;;;;;;;5.90;3.90;;;;;;;18.51;26.72;95420.03;4998518;28;20038;-78
2023/06/13 06:52:42;;;;;;;7.20;3.60;;;;;;;18.00;26.87;95428.53;5006044;28;20132;-78
2023/06/13 06:55:07;;;;;;;5.22;3.83;;;;;;;18.31;26.89;95428.47;4990930;28;20553;-78
2023/06/13 06:57:33;;;;;;;6.60;4.80;;;;;;;18.33;26.37;95434.44;5011200;28;20037;-78
2023/06/13 06:59:58;;;;;;;6.75;4.65;;;;;;;18.56;26.54;95433.63;4988851;28;20514;-79
2023/06/13 07:02:24;;;;;;;9.85;4.43;;;;;;;18.60;26.74;95425.94;5002036;28;20108;-78
2023/06/13 07:04:49;;;;;;;12.23;5.78;;;;;;;18.62;26.24;95426.53;4974869;28;20030;-79
2023/06/13 07:07:15;;;;;;;6.80;5.53;;;;;;;18.41;26.79;95425.19;4978981;28;20038;-78
2023/06/13 07:09:40;;;;;;;9.23;5.15;;;;;;;18.79;26.32;95420.41;5010092;28;20040;-78
2023/06/13 07:12:06;;;;;;;10.68;6.25;;;;;;;19.25;25.59;95420.59;5006290;28;20540;-79
2023/06/13 07:14:31;;;;;;;11.70;8.27;;;;;;;19.13;25.87;95430.56;4992714;28;20042;-78
2023/06/13 07:16:57;;;;;;;12.23;8.60;;;;;;;18.79;26.38;95426.63;5003681;28;20029;-79
2023/06/13 07:19:23;;;;;;;14.02;7.30;;;;;;;18.81;25.90;95421.84;5000928;28;20049;-79
2023/06/13 07:21:48;;;;;;;9.02;6.50;;;;;;;19.13;25.90;95430.56;4986650;28;20136;-79
2023/06/13 07:24:14;;;;;;;11.32;8.32;;;;;;;19.23;25.90;95430.78;4985692;28;20185;-78
2023/06/13 07:26:39;;;;;;;12.15;5.43;;;;;;;19.45;25.35;95440.97;4985572;28;20099;-78
2023/06/13 07:29:05;;;;;;;12.65;10.07;;;;;;;19.55;24.85;95440.34;4984176;28;20533;-72
2023/06/13 07:31:30;;;;;;;13.32;9.13;;;;;;;19.63;25.06;95439.97;4965994;28;20033;-78
2023/06/13 07:33:56;;;;;;;20.50;13.00;;;;;;;20.14;24.70;95433.06;4982480;28;20049;-78
2023/06/13 07:36:21;;;;;;;17.35;13.45;;;;;;;19.89;25.19;95447.72;4984246;28;20030;-78
2023/06/13 07:38:47;;;;;;;14.32;9.40;;;;;;;19.92;24.83;95441.84;4984019;28;20682;-78
2023/06/13 07:41:12;;;;;;;12.63;9.02;;;;;;;19.51;25.58;95440.00;4965968;28;20029;-78
2023/06/13 07:43:38;;;;;;;12.27;8.38;;;;;;;20.01;24.35;95439.59;4983013;28;20465;-78
2023/06/13 07:46:04;;;;;;;11.73;7.68;;;;;;;20.21;24.01;95444.53;4965102;28;20116;-78
2023/06/13 07:48:30;;;;;;;10.68;6.65;;;;;;;20.20;23.81;95437.50;4981747;28;20113;-78
2023/06/13 07:50:55;;;;;;;7.45;4.80;;;;;;;20.48;23.53;95446.59;4980963;28;20078;-78
2023/06/13 07:53:21;;;;;;;9.40;5.60;;;;;;;20.54;24.06;95445.63;4982711;28;20037;-78
2023/06/13 07:55:47;;;;;;;11.40;8.63;;;;;;;20.41;23.83;95441.34;4969033;28;20034;-78
2023/06/13 07:58:13;;;;;;;7.38;5.72;;;;;;;20.50;23.95;95447.19;4985590;28;20072;-77
2023/06/13 08:00:39;;;;;;;8.50;4.40;;;;;;;20.88;22.91;95439.38;5006759;28;20037;-78
2023/06/13 08:03:04;;;;;;;8.05;5.00;;;;;;;21.26;22.56;95436.91;4982145;28;20335;-77
2023/06/13 08:05:30;;;;;;;13.82;7.40;;;;;;;20.84;23.66;95441.75;4987513;28;20040;-78
2023/06/13 08:07:56;;;;;;;12.65;9.68;;;;;;;20.66;23.86;95437.44;5004846;28;20046;-77
2023/06/13 08:10:22;;;;;;;15.25;11.23;;;;;;;20.43;23.38;95441.13;4987204;28;20314;-78
2023/06/13 08:12:48;;;;;;;19.80;14.02;;;;;;;20.72;22.86;95444.56;4968771;28;20099;-77
2023/06/13 08:15:14;;;;;;;11.40;7.05;;;;;;;20.57;21.76;95433.50;4980118;28;20050;-77
2023/06/13 08:17:42;;;;;;;14.77;10.85;;;;;;;20.65;23.53;95435.81;4966017;28;20037;-76
2023/06/13 08:20:08;;;;;;;12.18;7.07;;;;;;;20.61;22.29;95430.03;4998363;28;20033;-76
2023/06/13 08:22:34;;;;;;;14.48;9.02;;;;;;;20.90;21.88;95436.44;4989140;28;20706;-76
2023/06/13 08:24:59;;;;;;;10.38;7.97;;;;;;;20.96;22.37;95435.41;4979763;28;20044;-77
2023/06/13 08:27:24;;;;;;;9.32;7.15;;;;;;;20.93;22.02;95430.50;5002720;28;20049;-80
2023/06/13 08:29:51;;;;;;;8.35;5.15;;;;;;;21.22;20.98;95433.06;4962553;28;20164;-80
2023/06/13 08:32:16;;;;;;;9.73;5.22;;;;;;;21.49;21.69;95435.03;4971499;28;20068;-80
2023/06/13 08:34:42;;;;;;;9.40;3.50;;;;;;;21.82;21.01;95430.50;4980330;28;20403;-78
2023/06/13 08:37:07;;;;;;;7.53;4.60;;;;;;;21.99;21.10;95426.94;4979988;28;20029;-78
2023/06/13 08:39:32;;;;;;;11.55;6.05;;;;;;;22.49;21.01;95429.50;4994439;28;20030;-69
2023/06/13 08:41:58;;;;;;;8.27;5.95;;;;;;;22.70;20.41;95422.34;4998865;28;20030;-69
2023/06/13 08:44:25;;;;;;;6.13;3.58;;;;;;;22.83;19.71;95425.69;4996524;28;20045;-69
2023/06/13 08:46:50;;;;;;;6.45;3.70;;;;;;;23.25;18.79;95421.34;5000732;28;20041;-69
2023/06/13 08:49:16;;;;;;;8.20;4.28;;;;;;;23.15;19.27;95420.19;4998909;28;20033;-69
2023/06/13 08:51:41;;;;;;;5.22;3.58;;;;;;;23.19;19.18;95409.63;5000477;28;20104;-69
2023/06/13 08:54:07;;;;;;;6.10;3.80;;;;;;;23.28;19.25;95421.63;4996141;28;20029;-70
2023/06/13 08:56:34;;;;;;;5.80;4.13;;;;;;;23.58;18.63;95415.75;4998754;28;20026;-69
2023/06/13 08:59:13;;;;;;;7.00;3.60;;;;;;;23.78;19.24;95415.00;5000148;28;20092;-69
2023/06/13 09:01:38;;;;;;;7.72;4.20;;;;;;;23.81;19.00;95415.28;5000198;28;20033;-70
2023/06/13 09:04:06;;;;;;;5.75;3.45;;;;;;;24.01;18.17;95416.41;4998904;28;20390;-70
2023/06/13 09:06:33;;;;;;;5.72;3.40;;;;;;;23.74;18.54;95422.88;5000455;28;20034;-69
2023/06/13 09:08:59;;;;;;;7.20;3.70;;;;;;;24.03;18.48;95427.03;4997845;28;20656;-69
2023/06/13 09:11:24;;;;;;;8.75;5.57;;;;;;;24.34;18.23;95421.63;4999042;28;20033;-69
2023/06/13 09:13:50;;;;;;;6.20;3.08;;;;;;;24.34;18.09;95413.47;4964617;28;20433;-69
2023/06/13 09:16:16;;;;;;;11.85;4.68;;;;;;;24.32;18.36;95410.16;4997624;28;20033;-69
2023/06/13 09:18:43;;;;;;;7.55;3.78;;;;;;;24.39;18.54;95410.75;4997749;28;20505;-69
2023/06/13 09:21:11;;;;;;;4.03;3.15;;;;;;;24.62;18.20;95413.16;4998073;28;20037;-70
2023/06/13 09:23:38;;;;;;;6.20;3.80;;;;;;;24.77;18.05;95404.97;4998692;28;20017;-69
2023/06/13 09:26:03;;;;;;;6.03;3.25;;;;;;;25.00;17.57;95407.41;4995526;28;20045;-69
2023/06/13 09:28:36;;;;;;;4.80;3.43;;;;;;;25.00;18.30;95405.50;4998372;28;20026;-69
2023/06/13 09:31:01;;;;;;;6.18;3.05;;;;;;;25.18;17.31;95404.06;4997905;28;20384;-69
2023/06/13 09:33:26;;;;;;;5.03;3.17;;;;;;;25.25;17.60;95394.81;4999306;28;20045;-69
2023/06/13 09:35:52;;;;;;;13.45;3.17;;;;;;;25.32;16.43;95398.84;5000568;28;20034;-69
2023/06/13 09:38:23;;;;;;;4.20;3.20;;;;;;;25.34;16.64;95401.28;4998547;28;20046;-70
2023/06/13 09:40:49;;;;;;;5.28;3.70;;;;;;;25.26;17.42;95397.25;4999165;28;20088;-70
2023/06/13 09:43:15;;;;;;;5.55;3.55;;;;;;;25.28;17.47;95396.94;4997177;28;20096;-70
2023/06/13 09:45:45;;;;;;;3.13;2.83;;;;;;;25.53;16.94;95392.53;4998544;28;20049;-70
2023/06/13 09:48:10;;;;;;;3.58;3.00;;;;;;;25.56;17.14;95383.78;4998222;28;20429;-70
2023/06/13 09:50:36;;;;;;;7.27;3.10;;;;;;;25.65;17.74;95384.81;4999190;28;20034;-69
2023/06/13 09:53:02;;;;;;;3.00;2.63;;;;;;;25.96;17.05;95403.69;4982184;28;20018;-70
2023/06/13 09:55:27;;;;;;;3.63;2.80;;;;;;;26.18;16.84;95390.75;4999410;28;20077;-70
2023/06/13 09:57:53;;;;;;;5.63;3.03;;;;;;;26.20;16.66;95389.38;4999216;28;20434;-69
2023/06/13 10:00:19;;;;;;;6.33;3.47;;;;;;;26.13;17.64;95388.88;4998343;28;20108;-69
2023/06/13 10:02:45;;;;;;;;;;;;;;;26.09;16.70;95387.81;4986114;28;20519;-69
2023/06/13 10:05:12;;;;;;;5.30;4.27;;;;;;;26.33;16.71;95387.91;4999131;28;19921;-69
2023/06/13 10:07:37;;;;;;;4.45;3.30;;;;;;;26.44;16.56;95387.81;4996550;28;20026;-69
2023/06/13 10:10:03;;;;;;;6.17;3.30;;;;;;;26.29;16.23;95381.41;5000014;28;20100;-69
2023/06/13 10:12:28;;;;;;;4.40;2.97;;;;;;;26.40;15.51;95379.38;5003715;28;20065;-69
2023/06/13 10:15:00;;;;;;;6.60;3.20;;;;;;;26.07;16.15;95376.41;5001574;28;20497;-70
2023/06/13 10:17:27;;;;;;;7.75;3.10;;;;;;;26.20;16.34;95374.91;5001910;28;20034;-70
2023/06/13 10:19:53;;;;;;;;;;;;;;;26.00;16.36;95371.22;5003129;28;20026;-69
2023/06/13 10:22:19;;;;;;;3.75;2.90;;;;;;;26.07;16.07;95369.00;5003141;28;20430;-69
2023/06/13 10:24:44;;;;;;;5.87;3.00;;;;;;;26.10;16.50;95362.16;4985465;28;20033;-69
2023/06/13 10:27:10;;;;;;;6.33;3.30;;;;;;;25.97;15.72;95364.41;5016529;28;20042;-69
2023/06/13 10:29:48;;;;;;;8.30;3.23;;;;;;;26.14;16.50;95368.72;5001976;28;20117;-69
2023/06/13 10:33:04;;;;;;;3.60;3.10;;;;;;;26.31;16.57;95370.19;5001679;28;20056;-69
2023/06/13 10:35:44;;;;;;;3.97;3.00;;;;;;;26.43;15.95;95373.34;4960403;28;20055;-69
2023/06/13 10:38:33;;;;;;;7.47;5.47;;;;;;;26.54;16.02;95371.34;4999262;28;20037;-70
2023/06/13 10:41:37;;;;;;;5.70;4.05;;;;;;;26.90;16.30;95363.91;5017339;28;20029;-70
2023/06/13 10:44:07;;;;;;;5.93;3.63;;;;;;;27.15;15.36;95368.28;5019121;28;20616;-69
2023/06/13 10:46:34;;;;;;;5.03;3.80;;;;;;;26.83;15.76;95369.72;5022878;28;20068;-70
2023/06/13 10:49:02;;;;;;;7.00;4.25;;;;;;;27.23;15.18;95366.84;5020885;28;20022;-69
2023/06/13 10:51:30;;;;;;;5.90;4.10;;;;;;;27.15;14.69;95370.22;4990433;28;20037;-69
2023/06/13 10:54:08;;;;;;;5.10;3.50;;;;;;;27.23;15.75;95366.84;5021633;28;20095;-69
2023/06/13 10:56:34;;;;;;;6.70;4.30;;;;;;;26.99;15.66;95359.44;5022215;28;20686;-70
2023/06/13 10:59:09;;;;;;;12.10;3.40;;;;;;;27.09;14.86;95359.31;5024671;28;20141;-70
2023/06/13 11:01:36;;;;;;;4.38;3.40;;;;;;;27.24;15.67;95360.25;5021986;28;20037;-69
2023/06/13 11:04:12;;;;;;;4.60;3.40;;;;;;;27.30;15.22;95358.28;5020037;28;20061;-69
2023/06/13 11:06:39;;;;;;;;;;;;;;;27.38;15.46;95361.16;5010884;28;20433;-69
2023/06/13 11:09:08;;;;;;;8.15;2.92;;;;;;;27.39;15.12;95361.97;5022293;28;19917;-70
2023/06/13 11:11:53;;;;;;;4.00;3.20;;;;;;;27.39;14.65;95345.56;5017786;28;20486;-70
2023/06/13 11:14:23;;;;;;;5.15;3.08;;;;;;;27.25;15.63;95338.13;5005787;28;20076;-69
2023/06/13 11:16:49;;;;;;;11.90;4.18;;;;;;;27.43;15.02;95346.59;5000812;28;20048;-69
2023/06/13 11:19:21;;;;;;;8.33;3.63;;;;;;;27.58;14.73;95356.53;5019856;28;20510;-70
2023/06/13 11:21:59;;;;;;;6.38;3.28;;;;;;;27.42;14.66;95350.44;5020584;28;20066;-70
2023/06/13 11:24:26;;;;;;;5.43;3.30;;;;;;;27.56;15.10;95338.81;5008842;28;20636;-70
2023/06/13 11:26:51;;;;;;;;;;;;;;;27.77;15.11;95339.34;5008702;28;20033;-70
2023/06/13 11:29:17;;;;;;;7.30;3.10;;;;;;;27.81;15.20;95339.56;5021283;28;19986;-69
2023/06/13 11:31:42;;;;;;;5.30;3.07;;;;;;;27.91;14.55;95342.13;5021374;28;20079;-69
2023/06/13 11:34:14;;;;;;;6.67;3.13;;;;;;;27.96;14.44;95341.22;5019983;28;20289;-69